Aérodrome :
LOGIN :

S'inscrire | Disclaimer

   EN    FR    IT 

 










Légende :    VFR   VFR Marginal   IFR   IFR Intensif   IFR Très Intensif
Visi : 
Plafond : 
>= 8 km
>= 3000ft
5 à 8 km
1000 à 3000 ft
1500m à 5 km
500 à 1000 ft
800 à 1500m
200 à 500 ft
< 800m
< 200 ft
Symboles :   Orages  Brouillard  Fortes neiges  Fortes précipitations  Vent > 20 kt
SIGMETs :   Divers  Orages  Givrage  Turbulence  Onde Orograph.  Cendres Volcan.







- Altitude de l'aérodrome : 87 ft
- Code IATA : AHO


LIEA - Fertilia Alghero

DERNIER METAR :
  • 290650Z 19011KT 9999 BKN035 25/20 Q1008

METARs EXPIRÉS :
  • 290620Z 20012KT 9999 SCT035 25/20 Q1008
  • 290550Z 20010KT 9999 SCT035 24/19 Q1007
  • 290520Z 22004KT 180V250 CAVOK 23/19 Q1007
  • 290450Z VRB01KT CAVOK 21/18 Q1007
  • 290420Z 08003KT 010V150 CAVOK 20/17 Q1007

TAF TAF LIEA
Valide du 29 à 06h jusqu'au 30 à 06h UTC


290500Z 2906/3006 25010KT 9999 SCT050
BECMG 2920/2922 VRB05KT
Pas de NOTAMs connus pour ce terrain.
1 SIGMET publié pour la FIR Roma (LIRR) :
 
Turbulence forte
LIRR SIGMET 2 VALID 290500/290900 LIIB- LIRR ROMA FIR SEV TURB FCST N OF LINE N3943 E00742 - N4113 E01520 FL200/360 STNR NC=



MET'MAP, la Météo Aéronautique d'un coup d'oeil ! - Copyright ORBIFLY Décembre 2007 - Disclaimer

ORBIFLY MET'MAP TEAM :

Programmation & Développement : Alexandra Zaïnal
Conception & Développement : Baudouin d'Aumeries
Co-Programmation & Développement : Marc-Olivier Méhu
Soutien technique & logistique : Manuel Goepfert

Contact : metmap@orbifly.com




SOURCES & CREDITS :

   NOAA